Birmingham, United Kingdom

4:45 AM GMT on November 27, 2014 (GMT +0000)
I90579489 | Change Station
CLOSE
Current Station
Personal Weather Station
Location: Solihull, West Midlands
Elevation: 394 ft
Nearby Weather Stations

Elev 394 ft 52.41 °N, 1.76 °W | Updated 8 seconds ago

Rain
Rain
47.5 °F
Feels Like 48 °F
N
0.0
Wind Variable Wind from NNW
Gusts 0.0 mph

Today
High -- | Low -- °F
--% Chance of Precip.
Yesterday
High -- | Low -- °F
Precip. -- in
7:48 AM 4:00 PM
Waxing Crescent, 25% visible
Pressure 29.65 in
Visibility 0.6 miles
Clouds Mostly Cloudy 100 ft
Overcast 500 ft
Windchill 48 °F
Dew Point 46 °F
Humidity 95%
Rainfall 0.06 in
Snow Depth Not available.
UV 0 out of 12
Pollen Not available.
Air Quality Not available.
Flu Activity Not available.
METAR EGBB 270420Z AUTO 30002KT 0900 RA BKN001/// OVC005/// 07/07 Q1004

More Conditions Fewer Conditions

Pressure 29.65 in
Visibility 0.6 miles
Clouds Mostly Cloudy 100 ft
Overcast 500 ft
Windchill 48 °F
Dew Point 46 °F
Humidity 95%
Rainfall 0.06 in
Snow Depth Not available.
UV 0 out of 12
Pollen Not available.
Air Quality Not available.
Flu Activity Not available.
METAR EGBB 270420Z AUTO 30002KT 0900 RA BKN001/// OVC005/// 07/07 Q1004

More Conditions Fewer Conditions

10-Day Weather Forecast

Almanac

Astronomy

Nov. 27, 2014 Rise Set
Actual Time
Civil Twilight
Nautical Twilight
Astronomical Twilight
Moon
Length of Visible Light
Length of Day
Tomorrow will be .
, % of the Moon is Illuminated

Today's Extremes

Country Highs Country Lows

Community

WunderPhotos

Upload Photos

1,773,959 photos uploaded!

WunderBlogs® & News

Nearby

Air Quality

  Air Quality AQ Index Pollutant
Not available.

Snow Depth

Station Depth Elevation

Earthquake Activity

City Distance Mag. Time & Date
Minimum magnitude displayed is 2.5.

Coastal Water Temperatures

Place Temperature

Nearby Weather Stations